Time;durP1;ratioP1;P1;durP2;ratioP2;P2;SDS_P1;SDS_P2;PMS_P1;PMS_P2;Temp;Humidity;BMP_temperature;BMP_pressure;BME280_temperature;BME280_humidity;BME280_pressure;Samples;Min_cycle;Max_cycle;Signal;HPM_P1;HPM_P2
2022/11/06 00:00:08;;;;;;;13.40;3.00;;;;;;;;;;5055796;28;20031;-72
2022/11/06 00:02:34;;;;;;;5.53;2.63;;;;;;;;;;5064709;28;20471;-73
2022/11/06 00:06:46;;;;;;;11.60;3.13;;;;;;;;;;5074282;28;20020;-72
2022/11/06 00:07:45;;;;;;;12.10;3.17;;;;;;;;;;5071879;28;20377;-72
2022/11/06 00:10:11;;;;;;;10.10;3.47;;;;;;;;;;5059849;28;20384;-73
2022/11/06 00:12:36;;;;;;;10.63;3.20;;;;;;;;;;5072796;28;20100;-72
2022/11/06 00:15:02;;;;;;;9.95;3.03;;;;;;;;;;5068892;28;20565;-71
2022/11/06 00:17:27;;;;;;;9.95;2.83;;;;;;;;;;5063773;28;20037;-71
2022/11/06 00:19:52;;;;;;;10.47;2.93;;;;;;;;;;5065210;28;20035;-72
2022/11/06 00:22:17;;;;;;;11.82;2.70;;;;;;;;;;5059750;28;20307;-72
2022/11/06 00:24:43;;;;;;;9.15;2.38;;;;;;;;;;5062162;28;20039;-73
2022/11/06 00:27:08;;;;;;;9.18;2.70;;;;;;;;;;5070653;28;20056;-72
2022/11/06 00:29:33;;;;;;;6.53;2.95;;;;;;;;;;5060849;28;20032;-71
2022/11/06 00:31:58;;;;;;;9.53;3.10;;;;;;;;;;5059220;28;20550;-72
2022/11/06 00:34:23;;;;;;;8.82;2.70;;;;;;;;;;5071780;28;20768;-73
2022/11/06 00:36:49;;;;;;;5.93;2.78;;;;;;;;;;5072085;28;20032;-72
2022/11/06 00:39:14;;;;;;;11.73;3.25;;;;;;;;;;5071297;28;20021;-72
2022/11/06 00:41:39;;;;;;;11.32;3.13;;;;;;;;;;5065999;28;20024;-72
2022/11/06 00:44:04;;;;;;;11.47;3.33;;;;;;;;;;5076002;28;20025;-73
2022/11/06 00:46:30;;;;;;;11.80;3.58;;;;;;;;;;5073334;28;20281;-73
2022/11/06 00:48:55;;;;;;;9.10;2.60;;;;;;;;;;5087471;28;20028;-73
2022/11/06 00:51:22;;;;;;;10.25;3.15;;;;;;;;;;5076069;28;20021;-72
2022/11/06 00:53:52;;;;;;;4.70;2.03;;;;;;;;;;5066553;28;20448;-72
2022/11/06 00:56:18;;;;;;;8.05;2.75;;;;;;;;;;5085424;28;20020;-72
2022/11/06 00:58:44;;;;;;;8.77;2.72;;;;;;;;;;5073284;28;20039;-73
2022/11/06 01:01:10;;;;;;;8.75;3.03;;;;;;;;;;5084579;28;20020;-74
2022/11/06 01:03:36;;;;;;;10.63;3.17;;;;;;;;;;5075344;28;20050;-74
2022/11/06 01:06:04;;;;;;;7.95;3.05;;;;;;;;;;5086871;28;20020;-74
2022/11/06 01:08:30;;;;;;;7.63;3.13;;;;;;;;;;5078178;28;20016;-72
2022/11/06 01:10:55;;;;;;;9.18;3.00;;;;;;;;;;5083962;28;20027;-72
2022/11/06 01:13:20;;;;;;;11.70;3.35;;;;;;;;;;5086114;28;20435;-72
2022/11/06 01:15:46;;;;;;;4.80;2.30;;;;;;;;;;5089141;28;20091;-73
2022/11/06 01:18:11;;;;;;;11.20;3.17;;;;;;;;;;5077650;28;20305;-73
2022/11/06 01:20:36;;;;;;;11.03;2.37;;;;;;;;;;5084655;28;20086;-75
2022/11/06 01:23:01;;;;;;;6.95;2.95;;;;;;;;;;5083092;28;20278;-72
2022/11/06 01:25:27;;;;;;;6.63;2.58;;;;;;;;;;5086859;28;20060;-73
2022/11/06 01:27:52;;;;;;;8.85;2.88;;;;;;;;;;5083466;28;20038;-73
2022/11/06 01:30:17;;;;;;;10.23;2.60;;;;;;;;;;5078265;28;20410;-72
2022/11/06 01:32:42;;;;;;;5.75;2.67;;;;;;;;;;5091046;28;20772;-71
2022/11/06 01:35:08;;;;;;;9.60;2.85;;;;;;;;;;5074692;28;20016;-73
2022/11/06 01:37:33;;;;;;;13.25;3.13;;;;;;;;;;5074282;28;20037;-73
2022/11/06 01:39:58;;;;;;;6.00;2.90;;;;;;;;;;5063150;28;20016;-74
2022/11/06 01:42:23;;;;;;;7.57;2.80;;;;;;;;;;5063706;28;20275;-73
2022/11/06 01:45:07;;;;;;;8.30;2.90;;;;;;;;;;5072158;28;20278;-72
2022/11/06 01:47:32;;;;;;;6.60;2.47;;;;;;;;;;5072854;28;20027;-73
2022/11/06 01:50:04;;;;;;;10.65;3.38;;;;;;;;;;5072885;28;20028;-73
2022/11/06 01:52:31;;;;;;;9.13;2.50;;;;;;;;;;5074107;28;20103;-73
2022/11/06 01:55:01;;;;;;;18.92;2.83;;;;;;;;;;5073726;28;20382;-73
2022/11/06 01:57:26;;;;;;;4.35;1.98;;;;;;;;;;5054225;28;20571;-73
2022/11/06 01:59:53;;;;;;;8.63;2.45;;;;;;;;;;5066298;28;20100;-73
2022/11/06 02:02:18;;;;;;;11.50;3.72;;;;;;;;;;5072798;28;20095;-72
2022/11/06 02:04:44;;;;;;;8.13;2.33;;;;;;;;;;5071129;28;20179;-73
2022/11/06 02:07:10;;;;;;;6.50;2.50;;;;;;;;;;5073464;28;20123;-73
2022/11/06 02:09:35;;;;;;;6.72;2.90;;;;;;;;;;5073510;28;20066;-73
2022/11/06 02:12:03;;;;;;;13.73;3.60;;;;;;;;;;5073171;28;20035;-73
2022/11/06 02:14:35;;;;;;;12.25;3.60;;;;;;;;;;5073286;28;20286;-73
2022/11/06 02:17:23;;;;;;;8.32;3.03;;;;;;;;;;5073657;28;20051;-74
2022/11/06 02:20:11;;;;;;;8.50;3.00;;;;;;;;;;5056397;28;20032;-73
2022/11/06 02:22:40;;;;;;;5.13;2.35;;;;;;;;;;5052924;28;20738;-72
2022/11/06 02:25:20;;;;;;;6.70;3.38;;;;;;;;;;5060104;28;20021;-72
2022/11/06 02:27:49;;;;;;;9.32;2.58;;;;;;;;;;5066010;28;20020;-71
2022/11/06 02:30:15;;;;;;;11.35;3.00;;;;;;;;;;5055262;28;20074;-72
2022/11/06 02:32:47;;;;;;;6.90;2.97;;;;;;;;;;5068469;28;20013;-73
2022/11/06 02:35:17;;;;;;;6.18;2.50;;;;;;;;;;5073451;28;20013;-73
2022/11/06 02:37:43;;;;;;;7.40;3.30;;;;;;;;;;5072596;28;20039;-74
2022/11/06 02:40:10;;;;;;;7.25;2.88;;;;;;;;;;5059983;28;20031;-73
2022/11/06 02:42:38;;;;;;;9.57;3.45;;;;;;;;;;5060301;28;20514;-74
2022/11/06 02:45:06;;;;;;;11.30;3.80;;;;;;;;;;5072519;28;20043;-74
2022/11/06 02:47:32;;;;;;;12.98;3.33;;;;;;;;;;5059738;28;20467;-74
2022/11/06 02:50:04;;;;;;;6.53;3.08;;;;;;;;;;5072023;28;20016;-74
2022/11/06 02:52:35;;;;;;;9.57;2.92;;;;;;;;;;5067607;28;20024;-74
2022/11/06 02:55:11;;;;;;;6.47;2.83;;;;;;;;;;5073316;28;20475;-73
2022/11/06 02:57:37;;;;;;;6.93;2.65;;;;;;;;;;5073014;28;20028;-73
2022/11/06 03:00:06;;;;;;;5.60;2.95;;;;;;;;;;5073772;28;20028;-75
2022/11/06 03:02:34;;;;;;;7.32;3.08;;;;;;;;;;5072668;28;20021;-74
2022/11/06 03:05:05;;;;;;;12.32;3.17;;;;;;;;;;5072330;28;20382;-74
2022/11/06 03:07:35;;;;;;;6.80;2.97;;;;;;;;;;5066279;28;20864;-73
2022/11/06 03:10:00;;;;;;;8.40;3.35;;;;;;;;;;5072061;28;20094;-74
2022/11/06 03:12:30;;;;;;;8.35;3.05;;;;;;;;;;5065193;28;20020;-72
2022/11/06 03:15:02;;;;;;;11.55;3.70;;;;;;;;;;5071486;28;20378;-75
2022/11/06 03:17:39;;;;;;;10.05;2.92;;;;;;;;;;5058425;28;20032;-74
2022/11/06 03:20:09;;;;;;;7.90;3.50;;;;;;;;;;5072916;28;20382;-74
2022/11/06 03:22:39;;;;;;;8.18;2.70;;;;;;;;;;5066215;28;20016;-74
2022/11/06 03:25:10;;;;;;;6.00;2.65;;;;;;;;;;5072309;28;20017;-74
2022/11/06 03:27:48;;;;;;;8.65;3.22;;;;;;;;;;5072729;28;20456;-75
2022/11/06 03:30:13;;;;;;;6.40;2.85;;;;;;;;;;5075600;28;20020;-74
2022/11/06 03:32:38;;;;;;;8.02;2.88;;;;;;;;;;5076373;28;20027;-74
2022/11/06 03:35:12;;;;;;;8.37;3.17;;;;;;;;;;5069374;28;20485;-73
2022/11/06 03:37:47;;;;;;;8.38;3.47;;;;;;;;;;5071085;28;20294;-72
2022/11/06 03:40:14;;;;;;;5.85;2.90;;;;;;;;;;5071324;28;20466;-73
2022/11/06 03:42:40;;;;;;;14.65;3.60;;;;;;;;;;5063828;28;20055;-74
2022/11/06 03:45:08;;;;;;;8.30;2.90;;;;;;;;;;5071362;28;20060;-74
2022/11/06 03:47:48;;;;;;;11.27;3.40;;;;;;;;;;5059379;28;20062;-73
2022/11/06 03:50:13;;;;;;;8.57;3.85;;;;;;;;;;5059431;28;20021;-74
2022/11/06 03:52:42;;;;;;;9.90;3.80;;;;;;;;;;5061802;28;20020;-75
2022/11/06 03:55:10;;;;;;;11.25;3.38;;;;;;;;;;5072422;28;20074;-73
2022/11/06 03:57:38;;;;;;;9.07;3.38;;;;;;;;;;5072744;28;20466;-73
2022/11/06 04:00:04;;;;;;;7.82;3.03;;;;;;;;;;5075024;28;20009;-75
2022/11/06 04:02:31;;;;;;;7.60;3.13;;;;;;;;;;5069654;28;20017;-74
2022/11/06 04:05:03;;;;;;;16.25;3.00;;;;;;;;;;5074964;28;20031;-76
2022/11/06 04:07:40;;;;;;;12.05;3.33;;;;;;;;;;5062527;28;20041;-73
2022/11/06 04:15:44;;;;;;;10.63;2.50;;;;;;;;;;5075900;28;20463;-73
2022/11/06 04:18:13;;;;;;;9.05;3.35;;;;;;;;;;5083801;28;20804;-76
2022/11/06 04:23:25;;;;;;;7.25;3.63;;;;;;;;;;5071770;28;20044;-74
2022/11/06 04:29:11;;;;;;;5.88;2.42;;;;;;;;;;5073878;28;20848;-74
2022/11/06 04:31:45;;;;;;;11.75;3.60;;;;;;;;;;5074035;28;20040;-74
2022/11/06 04:34:13;;;;;;;7.18;3.10;;;;;;;;;;5073797;28;20025;-74
2022/11/06 04:36:44;;;;;;;9.23;3.05;;;;;;;;;;5075449;28;20060;-72
2022/11/06 04:39:28;;;;;;;13.65;2.75;;;;;;;;;;5075058;28;20208;-72
2022/11/06 04:41:53;;;;;;;9.43;2.70;;;;;;;;;;5073923;28;20070;-73
2022/11/06 04:44:42;;;;;;;8.10;2.60;;;;;;;;;;5075183;28;20028;-72
2022/11/06 04:47:08;;;;;;;7.63;2.70;;;;;;;;;;5054690;28;20647;-76
2022/11/06 04:49:35;;;;;;;5.95;2.60;;;;;;;;;;5070380;28;20471;-74
2022/11/06 04:52:02;;;;;;;10.10;3.45;;;;;;;;;;5075393;28;20078;-74
2022/11/06 04:54:27;;;;;;;8.13;2.75;;;;;;;;;;5075172;28;20470;-75
2022/11/06 04:56:57;;;;;;;7.22;2.92;;;;;;;;;;5073981;28;20020;-74
2022/11/06 04:59:22;;;;;;;6.05;2.80;;;;;;;;;;5075237;28;20063;-73
2022/11/06 05:01:47;;;;;;;8.23;2.50;;;;;;;;;;5092046;28;20059;-73
2022/11/06 05:04:13;;;;;;;11.43;3.60;;;;;;;;;;5086237;28;20024;-72
2022/11/06 05:06:38;;;;;;;10.02;2.60;;;;;;;;;;5088163;28;20270;-73
2022/11/06 05:09:03;;;;;;;9.23;3.25;;;;;;;;;;5088092;28;20078;-73
2022/11/06 05:11:28;;;;;;;8.53;2.60;;;;;;;;;;5074772;28;20109;-74
2022/11/06 05:13:54;;;;;;;5.33;2.87;;;;;;;;;;5087300;28;20282;-72
2022/11/06 05:16:19;;;;;;;9.65;2.75;;;;;;;;;;5084633;28;20302;-72
2022/11/06 05:18:44;;;;;;;8.27;2.50;;;;;;;;;;5079885;28;20490;-72
2022/11/06 05:23:53;;;;;;;5.22;2.28;;;;;;;;;;5071363;28;20039;-73
2022/11/06 05:26:19;;;;;;;5.15;2.35;;;;;;;;;;5080193;28;20111;-72
2022/11/06 05:28:44;;;;;;;6.03;2.20;;;;;;;;;;5081311;28;20020;-72
2022/11/06 05:31:09;;;;;;;8.55;2.80;;;;;;;;;;5090994;28;20016;-73
2022/11/06 05:33:35;;;;;;;8.77;2.53;;;;;;;;;;5081487;28;20020;-72
2022/11/06 05:36:01;;;;;;;8.95;2.47;;;;;;;;;;5086474;28;20032;-72
2022/11/06 05:38:26;;;;;;;9.75;3.22;;;;;;;;;;5074946;28;20032;-72
2022/11/06 05:40:51;;;;;;;10.88;2.67;;;;;;;;;;5078369;28;20020;-72
2022/11/06 05:43:16;;;;;;;12.40;3.03;;;;;;;;;;5077412;28;20101;-72
2022/11/06 05:45:41;;;;;;;7.60;2.40;;;;;;;;;;5074534;28;20301;-72
2022/11/06 05:48:07;;;;;;;8.57;2.20;;;;;;;;;;5060222;28;20263;-72
2022/11/06 05:50:32;;;;;;;8.48;3.40;;;;;;;;;;5063536;28;20037;-73
2022/11/06 05:52:58;;;;;;;8.90;2.67;;;;;;;;;;5057805;28;20036;-72
2022/11/06 05:55:23;;;;;;;8.23;2.65;;;;;;;;;;5072937;28;20282;-72
2022/11/06 05:57:49;;;;;;;8.73;3.20;;;;;;;;;;5073604;28;20025;-72
2022/11/06 06:00:14;;;;;;;8.73;2.45;;;;;;;;;;5089617;28;20017;-72
2022/11/06 06:02:40;;;;;;;13.02;2.38;;;;;;;;;;5073887;28;20017;-72
2022/11/06 06:05:05;;;;;;;8.48;3.35;;;;;;;;;;5082781;28;20027;-74
2022/11/06 06:07:31;;;;;;;8.00;3.00;;;;;;;;;;5071463;28;20390;-72
2022/11/06 06:09:56;;;;;;;6.53;2.25;;;;;;;;;;5052294;28;20020;-73
2022/11/06 06:12:25;;;;;;;6.35;2.03;;;;;;;;;;5039754;28;20875;-73
2022/11/06 06:14:50;;;;;;;4.47;2.05;;;;;;;;;;5032240;28;20885;-69
2022/11/06 06:17:15;;;;;;;12.82;2.33;;;;;;;;;;5029547;28;20012;-68
2022/11/06 06:19:40;;;;;;;6.63;2.30;;;;;;;;;;5027469;28;20874;-68
2022/11/06 06:22:05;;;;;;;8.82;2.42;;;;;;;;;;5029263;28;21214;-73
2022/11/06 06:24:31;;;;;;;5.90;2.63;;;;;;;;;;5030281;28;20064;-73
2022/11/06 06:26:56;;;;;;;5.55;2.42;;;;;;;;;;5026400;28;20127;-73
2022/11/06 06:29:21;;;;;;;7.22;2.58;;;;;;;;;;5029079;28;20044;-73
2022/11/06 06:31:48;;;;;;;7.60;2.88;;;;;;;;;;5030301;28;20893;-74
2022/11/06 06:34:14;;;;;;;8.05;2.90;;;;;;;;;;5031599;28;20008;-74
2022/11/06 06:36:39;;;;;;;8.52;2.67;;;;;;;;;;5036069;28;20039;-75
2022/11/06 06:39:04;;;;;;;8.52;2.80;;;;;;;;;;5031157;28;20028;-74
2022/11/06 06:41:29;;;;;;;7.38;2.30;;;;;;;;;;5031665;28;20113;-73
2022/11/06 06:43:55;;;;;;;5.57;2.08;;;;;;;;;;5054111;28;20088;-72
2022/11/06 06:46:20;;;;;;;10.13;2.80;;;;;;;;;;5038447;28;20031;-75
2022/11/06 06:48:45;;;;;;;8.80;2.67;;;;;;;;;;5026563;28;20274;-74
2022/11/06 06:51:10;;;;;;;7.57;2.40;;;;;;;;;;5051134;28;20278;-73
2022/11/06 06:53:36;;;;;;;7.53;2.53;;;;;;;;;;5033242;28;20016;-73
2022/11/06 06:56:01;;;;;;;17.23;2.70;;;;;;;;;;5030259;28;20934;-72
2022/11/06 06:58:27;;;;;;;14.23;2.40;;;;;;;;;;5023126;28;20027;-73
2022/11/06 07:00:53;;;;;;;6.53;2.63;;;;;;;;;;5030279;28;20050;-73
2022/11/06 07:03:19;;;;;;;8.30;2.67;;;;;;;;;;5023601;28;20074;-74
2022/11/06 07:05:45;;;;;;;7.65;2.78;;;;;;;;;;5030735;28;20894;-73
2022/11/06 07:08:10;;;;;;;5.90;2.20;;;;;;;;;;5035285;28;20123;-73
2022/11/06 07:10:36;;;;;;;4.38;1.65;;;;;;;;;;5036601;28;20026;-73
2022/11/06 07:13:02;;;;;;;4.00;2.10;;;;;;;;;;5030067;28;20020;-73
2022/11/06 07:15:27;;;;;;;9.70;2.25;;;;;;;;;;5029547;28;20283;-74
2022/11/06 07:17:52;;;;;;;7.20;2.85;;;;;;;;;;5028103;28;20369;-74
2022/11/06 07:20:18;;;;;;;7.47;2.22;;;;;;;;;;5028231;28;20040;-73
2022/11/06 07:22:43;;;;;;;6.25;2.35;;;;;;;;;;5030528;28;20816;-74
2022/11/06 07:25:08;;;;;;;11.18;2.00;;;;;;;;;;5029867;28;20028;-73
2022/11/06 07:27:33;;;;;;;6.43;2.10;;;;;;;;;;5037318;28;20123;-73
2022/11/06 07:29:59;;;;;;;7.10;2.50;;;;;;;;;;5027300;28;20851;-74
2022/11/06 07:32:24;;;;;;;12.23;3.10;;;;;;;;;;5022885;28;20013;-73
2022/11/06 07:34:50;;;;;;;6.28;1.83;;;;;;;;;;5034275;28;20014;-73
2022/11/06 07:37:15;;;;;;;6.27;2.13;;;;;;;;;;5026359;28;20078;-74
2022/11/06 07:39:40;;;;;;;8.57;2.95;;;;;;;;;;5030754;28;20275;-69
2022/11/06 07:42:05;;;;;;;6.17;1.90;;;;;;;;;;5026543;28;20017;-72
2022/11/06 07:44:31;;;;;;;6.15;2.30;;;;;;;;;;5022945;28;20291;-69
2022/11/06 07:46:56;;;;;;;8.83;2.83;;;;;;;;;;5049002;28;20059;-74
2022/11/06 07:49:21;;;;;;;7.80;2.30;;;;;;;;;;5051166;28;20259;-73
2022/11/06 07:51:46;;;;;;;7.27;2.30;;;;;;;;;;5063494;28;20282;-71
2022/11/06 07:54:12;;;;;;;10.95;2.30;;;;;;;;;;5063421;28;20278;-73
2022/11/06 07:56:37;;;;;;;11.73;2.70;;;;;;;;;;5053381;28;20069;-73
2022/11/06 07:59:02;;;;;;;4.65;2.25;;;;;;;;;;5058155;28;20088;-73
2022/11/06 08:01:28;;;;;;;6.22;2.47;;;;;;;;;;5067283;28;20078;-72
2022/11/06 08:03:53;;;;;;;5.82;2.00;;;;;;;;;;5060857;28;20025;-73
2022/11/06 08:06:18;;;;;;;6.45;2.65;;;;;;;;;;5071809;28;20095;-74
2022/11/06 08:08:43;;;;;;;6.43;2.05;;;;;;;;;;5077581;28;20414;-73
2022/11/06 08:11:10;;;;;;;6.03;2.00;;;;;;;;;;5071740;28;20052;-73
2022/11/06 08:13:36;;;;;;;10.85;2.50;;;;;;;;;;5071383;28;20020;-72
2022/11/06 08:16:04;;;;;;;4.90;2.03;;;;;;;;;;5066159;28;20017;-73
2022/11/06 08:18:29;;;;;;;9.98;2.80;;;;;;;;;;5065639;28;20021;-73
2022/11/06 08:20:54;;;;;;;6.55;2.47;;;;;;;;;;5068801;28;20039;-73
2022/11/06 08:23:20;;;;;;;5.33;2.37;;;;;;;;;;5071471;28;20070;-73
2022/11/06 08:25:45;;;;;;;8.70;1.95;;;;;;;;;;5070603;28;20290;-74
2022/11/06 08:28:10;;;;;;;7.70;2.67;;;;;;;;;;5071271;28;20489;-73
2022/11/06 08:30:35;;;;;;;4.45;1.77;;;;;;;;;;5064492;28;20457;-73
2022/11/06 08:33:02;;;;;;;8.32;1.98;;;;;;;;;;5071808;28;20065;-73
2022/11/06 08:35:28;;;;;;;3.97;2.10;;;;;;;;;;5070279;28;20102;-73
2022/11/06 08:37:53;;;;;;;8.07;2.10;;;;;;;;;;5060621;28;20426;-73
2022/11/06 08:40:19;;;;;;;8.40;2.13;;;;;;;;;;5062794;28;20084;-73
2022/11/06 08:42:44;;;;;;;5.97;2.08;;;;;;;;;;5071120;28;20767;-73
2022/11/06 08:45:10;;;;;;;4.60;1.60;;;;;;;;;;5067443;28;20025;-73
2022/11/06 08:47:35;;;;;;;10.98;3.03;;;;;;;;;;5060347;28;20382;-73
2022/11/06 08:50:00;;;;;;;5.70;2.08;;;;;;;;;;5066546;28;20095;-73
2022/11/06 08:52:25;;;;;;;5.77;2.07;;;;;;;;;;5071147;28;20352;-73
2022/11/06 08:54:51;;;;;;;7.57;2.10;;;;;;;;;;5080437;28;20262;-72
2022/11/06 08:57:16;;;;;;;6.70;2.30;;;;;;;;;;5075779;28;20285;-73
2022/11/06 08:59:42;;;;;;;5.40;2.08;;;;;;;;;;5070576;28;20617;-73
2022/11/06 09:02:13;;;;;;;8.38;2.33;;;;;;;;;;5065533;28;20383;-73
2022/11/06 09:04:39;;;;;;;16.17;2.75;;;;;;;;;;5071487;28;20028;-73
2022/11/06 09:07:04;;;;;;;4.63;2.20;;;;;;;;;;5072804;28;20020;-73
2022/11/06 09:09:32;;;;;;;6.90;1.73;;;;;;;;;;5070822;28;20099;-73
2022/11/06 09:11:58;;;;;;;6.93;2.08;;;;;;;;;;5074145;28;20024;-73
2022/11/06 09:14:24;;;;;;;8.25;2.25;;;;;;;;;;5073134;28;20027;-73
2022/11/06 09:16:49;;;;;;;9.50;2.00;;;;;;;;;;5074764;28;20378;-73
2022/11/06 09:19:15;;;;;;;5.05;1.60;;;;;;;;;;5071425;28;20016;-74
2022/11/06 09:21:40;;;;;;;7.85;2.10;;;;;;;;;;5075238;28;20027;-73
2022/11/06 09:24:05;;;;;;;4.30;1.60;;;;;;;;;;5075194;28;20028;-73
2022/11/06 09:26:31;;;;;;;6.18;1.77;;;;;;;;;;5094053;28;20095;-73
2022/11/06 09:28:56;;;;;;;6.13;2.03;;;;;;;;;;5092076;28;20027;-73
2022/11/06 09:31:21;;;;;;;9.00;2.25;;;;;;;;;;5063244;28;20103;-73
2022/11/06 09:33:46;;;;;;;5.88;1.92;;;;;;;;;;5087069;28;20020;-73
2022/11/06 09:36:12;;;;;;;6.65;2.70;;;;;;;;;;5077375;28;20043;-74
2022/11/06 09:38:37;;;;;;;5.05;1.55;;;;;;;;;;5085297;28;20056;-73
2022/11/06 09:41:03;;;;;;;6.63;1.88;;;;;;;;;;5079809;28;20021;-73
2022/11/06 09:43:28;;;;;;;8.48;2.05;;;;;;;;;;5074322;28;20380;-73
2022/11/06 09:45:54;;;;;;;6.10;1.67;;;;;;;;;;5070954;28;20029;-73
2022/11/06 09:48:25;;;;;;;5.25;1.85;;;;;;;;;;5065062;28;20272;-73
2022/11/06 09:50:54;;;;;;;5.57;1.70;;;;;;;;;;5066257;28;20021;-73
2022/11/06 09:53:34;;;;;;;6.40;2.25;;;;;;;;;;5074481;28;20052;-73
2022/11/06 09:56:01;;;;;;;7.00;2.15;;;;;;;;;;5070453;28;20529;-72
2022/11/06 09:58:32;;;;;;;4.80;2.05;;;;;;;;;;5090442;28;20044;-73
2022/11/06 10:01:00;;;;;;;7.88;2.10;;;;;;;;;;5082799;28;20475;-73
2022/11/06 10:03:29;;;;;;;4.20;1.67;;;;;;;;;;5057450;28;20078;-73
2022/11/06 10:05:55;;;;;;;4.00;1.67;;;;;;;;;;5059739;28;20024;-73
2022/11/06 10:08:23;;;;;;;3.75;1.73;;;;;;;;;;5071548;28;20027;-73
2022/11/06 10:10:53;;;;;;;5.32;2.58;;;;;;;;;;5071701;28;20498;-73
2022/11/06 10:13:19;;;;;;;6.07;1.83;;;;;;;;;;5072039;28;20020;-73
2022/11/06 10:15:48;;;;;;;4.30;1.40;;;;;;;;;;5074048;28;20020;-74
2022/11/06 10:18:28;;;;;;;6.28;1.95;;;;;;;;;;5060275;28;20664;-73
2022/11/06 10:20:58;;;;;;;7.53;2.17;;;;;;;;;;5069302;28;20355;-73
2022/11/06 10:23:38;;;;;;;5.25;1.63;;;;;;;;;;5073124;28;20028;-72
2022/11/06 10:26:12;;;;;;;5.18;1.73;;;;;;;;;;5087655;28;20050;-73
2022/11/06 10:28:37;;;;;;;10.98;2.47;;;;;;;;;;5093449;28;20031;-73
2022/11/06 10:31:03;;;;;;;6.43;2.23;;;;;;;;;;5080397;28;20359;-73
2022/11/06 10:33:37;;;;;;;4.43;1.80;;;;;;;;;;5072934;28;20605;-73
2022/11/06 10:36:08;;;;;;;6.82;2.35;;;;;;;;;;5071565;28;20282;-75
2022/11/06 10:38:35;;;;;;;7.28;1.90;;;;;;;;;;5044540;28;20017;-75
2022/11/06 10:41:01;;;;;;;6.22;1.80;;;;;;;;;;5048230;28;20031;-74
2022/11/06 10:43:34;;;;;;;4.57;1.95;;;;;;;;;;5069358;28;20025;-73
2022/11/06 10:46:12;;;;;;;8.48;2.30;;;;;;;;;;5087311;28;20031;-73
2022/11/06 10:48:39;;;;;;;3.97;1.50;;;;;;;;;;5066817;28;20021;-73
2022/11/06 10:51:07;;;;;;;5.20;1.63;;;;;;;;;;5070557;28;20111;-73
2022/11/06 10:53:38;;;;;;;7.38;2.15;;;;;;;;;;5072525;28;20029;-73
2022/11/06 10:56:06;;;;;;;4.82;1.75;;;;;;;;;;5059830;28;20031;-76
2022/11/06 10:58:32;;;;;;;10.35;1.75;;;;;;;;;;5065126;28;20028;-71
2022/11/06 11:00:59;;;;;;;6.45;1.60;;;;;;;;;;5077458;28;20750;-73
2022/11/06 11:03:27;;;;;;;3.70;1.25;;;;;;;;;;5091546;28;20065;-72
2022/11/06 11:05:54;;;;;;;5.57;2.10;;;;;;;;;;5069154;28;20582;-73
2022/11/06 11:08:33;;;;;;;8.23;2.00;;;;;;;;;;5062016;28;20009;-75
2022/11/06 11:11:13;;;;;;;4.70;1.70;;;;;;;;;;5072055;28;20025;-69
2022/11/06 11:13:43;;;;;;;5.35;1.90;;;;;;;;;;5070254;28;20099;-69
2022/11/06 11:16:19;;;;;;;5.85;1.67;;;;;;;;;;5072539;28;20386;-71
2022/11/06 11:18:44;;;;;;;5.03;2.22;;;;;;;;;;5068470;28;20052;-69
2022/11/06 11:21:23;;;;;;;6.63;1.70;;;;;;;;;;5065446;28;20095;-69
2022/11/06 11:24:03;;;;;;;4.72;1.25;;;;;;;;;;5064751;28;20111;-69
2022/11/06 11:26:29;;;;;;;5.25;2.13;;;;;;;;;;5056127;28;20020;-70
2022/11/06 11:28:59;;;;;;;5.07;1.42;;;;;;;;;;5062760;28;20463;-71
2022/11/06 11:31:34;;;;;;;5.07;1.88;;;;;;;;;;5079217;28;20048;-72
2022/11/06 11:34:03;;;;;;;3.38;1.55;;;;;;;;;;5068771;28;20016;-70
2022/11/06 11:36:47;;;;;;;7.20;1.80;;;;;;;;;;5071676;28;20024;-73
2022/11/06 11:39:13;;;;;;;5.90;2.08;;;;;;;;;;5071350;28;20021;-71
2022/11/06 11:41:38;;;;;;;3.90;1.55;;;;;;;;;;5059601;28;20823;-75
2022/11/06 11:44:04;;;;;;;4.57;1.88;;;;;;;;;;5047815;28;20029;-73
2022/11/06 11:46:30;;;;;;;5.85;1.90;;;;;;;;;;5053483;28;20048;-70
2022/11/06 11:48:57;;;;;;;7.10;2.20;;;;;;;;;;5059487;28;20116;-72
2022/11/06 11:51:36;;;;;;;4.40;1.63;;;;;;;;;;5071439;28;20032;-72
2022/11/06 11:54:03;;;;;;;5.30;1.98;;;;;;;;;;5058606;28;20051;-73
2022/11/06 11:56:28;;;;;;;4.20;1.92;;;;;;;;;;5050309;28;20076;-73
2022/11/06 11:58:57;;;;;;;5.43;1.40;;;;;;;;;;5040706;28;20017;-75
2022/11/06 12:01:42;;;;;;;3.40;1.55;;;;;;;;;;5052742;28;20016;-75
2022/11/06 12:04:20;;;;;;;3.97;1.95;;;;;;;;;;5059100;28;20054;-77
2022/11/06 12:07:05;;;;;;;5.45;1.70;;;;;;;;;;5049017;28;20079;-74
2022/11/06 12:09:32;;;;;;;5.15;2.20;;;;;;;;;;5053100;28;20024;-74
2022/11/06 12:11:58;;;;;;;5.35;1.95;;;;;;;;;;5055312;28;20056;-74
2022/11/06 12:14:25;;;;;;;4.65;1.55;;;;;;;;;;5046221;28;20028;-70
2022/11/06 12:16:53;;;;;;;5.30;1.58;;;;;;;;;;5058626;28;20025;-73
2022/11/06 12:19:20;;;;;;;4.78;2.10;;;;;;;;;;5069183;28;20023;-73
2022/11/06 12:21:49;;;;;;;7.22;1.55;;;;;;;;;;5070872;28;20467;-69
2022/11/06 12:24:17;;;;;;;6.90;1.70;;;;;;;;;;5058691;28;20119;-73
2022/11/06 12:27:09;;;;;;;4.30;1.60;;;;;;;;;;5069150;28;20402;-74
2022/11/06 12:29:55;;;;;;;5.10;1.40;;;;;;;;;;5063218;28;20032;-73
2022/11/06 12:32:24;;;;;;;3.70;1.17;;;;;;;;;;5068995;28;20037;-74
2022/11/06 12:35:08;;;;;;;7.13;1.40;;;;;;;;;;5063992;28;20024;-73
2022/11/06 12:37:39;;;;;;;4.13;1.75;;;;;;;;;;5073043;28;20032;-75
2022/11/06 12:40:07;;;;;;;4.07;1.83;;;;;;;;;;5073318;28;20102;-74
2022/11/06 12:42:33;;;;;;;4.35;1.60;;;;;;;;;;5069928;28;20723;-74
2022/11/06 12:44:58;;;;;;;4.90;2.00;;;;;;;;;;5073451;28;20032;-75
2022/11/06 12:47:36;;;;;;;4.40;1.75;;;;;;;;;;5060652;28;20063;-73
2022/11/06 12:50:16;;;;;;;3.60;1.35;;;;;;;;;;5070326;28;20103;-74
2022/11/06 12:53:10;;;;;;;8.73;1.60;;;;;;;;;;5056032;28;20074;-73
2022/11/06 12:55:40;;;;;;;5.28;2.35;;;;;;;;;;5046460;28;20037;-73
2022/11/06 12:58:17;;;;;;;5.88;1.70;;;;;;;;;;5052158;28;20028;-73
2022/11/06 13:00:52;;;;;;;7.13;1.60;;;;;;;;;;5057776;28;20021;-73
2022/11/06 13:03:24;;;;;;;3.38;1.17;;;;;;;;;;5063015;28;20032;-73
2022/11/06 13:05:52;;;;;;;3.55;1.50;;;;;;;;;;5071539;28;20055;-73
2022/11/06 13:08:36;;;;;;;3.95;1.15;;;;;;;;;;5062370;28;20447;-73
2022/11/06 13:11:20;;;;;;;3.65;1.23;;;;;;;;;;5088282;28;20016;-72
2022/11/06 13:13:45;;;;;;;5.15;1.80;;;;;;;;;;5068843;28;20029;-73
2022/11/06 13:16:22;;;;;;;5.47;1.97;;;;;;;;;;5072690;28;20035;-73
2022/11/06 13:18:52;;;;;;;5.35;1.58;;;;;;;;;;5084892;28;20769;-74
2022/11/06 13:21:24;;;;;;;7.65;1.60;;;;;;;;;;5064239;28;20104;-74
2022/11/06 13:23:50;;;;;;;4.57;1.70;;;;;;;;;;5051586;28;20025;-73
2022/11/06 13:26:19;;;;;;;4.63;1.60;;;;;;;;;;5069196;28;20083;-73
2022/11/06 13:28:55;;;;;;;6.50;1.95;;;;;;;;;;5076232;28;20363;-72
2022/11/06 13:31:24;;;;;;;5.95;2.13;;;;;;;;;;5070285;28;20013;-73
2022/11/06 13:33:53;;;;;;;3.45;1.40;;;;;;;;;;5060078;28;20028;-73
2022/11/06 13:36:18;;;;;;;6.03;2.05;;;;;;;;;;5061587;28;20033;-73
2022/11/06 13:38:51;;;;;;;5.50;2.33;;;;;;;;;;5073961;28;20761;-74
2022/11/06 13:41:21;;;;;;;7.82;1.70;;;;;;;;;;5075454;28;20426;-73
2022/11/06 13:43:49;;;;;;;7.03;2.67;;;;;;;;;;5061545;28;20062;-72
2022/11/06 13:46:25;;;;;;;3.70;1.75;;;;;;;;;;5057769;28;20024;-72
2022/11/06 13:49:03;;;;;;;4.32;1.75;;;;;;;;;;5071889;28;20016;-72
2022/11/06 13:51:28;;;;;;;4.63;1.85;;;;;;;;;;5072529;28;20078;-73
2022/11/06 13:53:56;;;;;;;8.20;2.47;;;;;;;;;;5067537;28;20115;-73
2022/11/06 13:56:21;;;;;;;6.35;2.70;;;;;;;;;;5072156;28;20932;-72
2022/11/06 13:59:05;;;;;;;7.07;2.63;;;;;;;;;;5072483;28;20341;-72
2022/11/06 14:01:34;;;;;;;4.15;1.90;;;;;;;;;;5063641;28;20710;-73
2022/11/06 14:04:08;;;;;;;6.05;1.80;;;;;;;;;;5059174;28;20067;-73
2022/11/06 14:06:34;;;;;;;5.55;2.20;;;;;;;;;;5057719;28;20031;-73
2022/11/06 14:09:03;;;;;;;7.90;2.50;;;;;;;;;;5067770;28;20383;-73
2022/11/06 14:11:30;;;;;;;6.18;2.15;;;;;;;;;;5069700;28;20025;-74
2022/11/06 14:14:05;;;;;;;7.50;2.40;;;;;;;;;;5064151;28;20091;-74
2022/11/06 14:16:32;;;;;;;7.28;1.83;;;;;;;;;;5072788;28;20117;-74
2022/11/06 14:18:57;;;;;;;4.55;1.95;;;;;;;;;;5068290;28;20013;-73
2022/11/06 14:21:25;;;;;;;4.73;1.90;;;;;;;;;;5072812;28;20023;-72
2022/11/06 14:24:09;;;;;;;5.20;2.33;;;;;;;;;;5071752;28;20071;-72
2022/11/06 14:26:38;;;;;;;5.67;2.57;;;;;;;;;;5067570;28;20445;-71
2022/11/06 14:29:22;;;;;;;4.97;2.42;;;;;;;;;;5069054;28;20020;-71
2022/11/06 14:31:59;;;;;;;5.20;2.37;;;;;;;;;;5069709;28;20031;-72
2022/11/06 14:34:29;;;;;;;10.75;3.55;;;;;;;;;;5074036;28;20062;-70
2022/11/06 14:36:54;;;;;;;8.82;3.15;;;;;;;;;;5077961;28;20115;-71
2022/11/06 14:39:39;;;;;;;8.02;2.83;;;;;;;;;;5078908;28;20137;-70
2022/11/06 14:42:05;;;;;;;4.47;2.25;;;;;;;;;;5067005;28;20051;-70
2022/11/06 14:44:38;;;;;;;5.82;2.35;;;;;;;;;;5068122;28;20479;-70
2022/11/06 14:47:06;;;;;;;5.45;2.67;;;;;;;;;;5066977;28;20024;-66
2022/11/06 14:49:37;;;;;;;11.10;2.72;;;;;;;;;;5064696;28;20033;-70
2022/11/06 14:52:07;;;;;;;7.03;2.92;;;;;;;;;;5061011;28;20192;-70
2022/11/06 14:54:34;;;;;;;7.50;2.35;;;;;;;;;;5060279;28;20383;-70
2022/11/06 14:57:00;;;;;;;7.70;2.88;;;;;;;;;;5055566;28;20075;-72
2022/11/06 14:59:36;;;;;;;5.32;2.88;;;;;;;;;;5066330;28;20059;-70
2022/11/06 15:02:14;;;;;;;4.90;2.45;;;;;;;;;;5072224;28;20043;-69